Alburg Springs, VT

12:31 AM EST on January 31, 2015 (GMT -0500)
APRSWXNET Alburg VT US | Change Station
CLOSE
Current Station
Personal Weather Station
Location: Alburg, VT
Elevation: 120 ft
Nearby Weather Stations
Active Advisory: Wind Chill Advisory Active Notice: Public Information Statement

Elev 120 ft 44.96 °N, 73.25 °W | Updated 35 minutes ago

Mostly Cloudy
Mostly Cloudy
3 °F
Feels Like -12 °F
N
10
Wind Variable Wind from North
Gusts 19.0 mph

Today
High -- | Low -- °F
--% Chance of Precip.
Yesterday
High -- | Low -- °F
Precip. -- in
7:14 AM 4:59 PM
Waxing Gibbous, 87% visible
Pressure 30.14 in
Visibility 10.0 miles
Clouds Overcast 2900 ft
Windchill -12 °F
Dew Point -3 °F
Humidity 74%
Rainfall 0.00 in
Snow Depth Not available.
UV 0 out of 12
Pollen .10 out of 12
Air Quality Not available.
Flu Activity Not available.
METAR KFSO 310515Z AUTO 29007KT 260V330 10SM OVC029 M16/M21 A3014 RMK AO2 T11651211

More Conditions Fewer Conditions

Pressure 30.14 in
Visibility 10.0 miles
Clouds Overcast 2900 ft
Windchill -12 °F
Dew Point -3 °F
Humidity 74%
Rainfall 0.00 in
Snow Depth Not available.
UV 0 out of 12
Pollen .10 out of 12
Air Quality Not available.
Flu Activity Not available.
METAR KFSO 310515Z AUTO 29007KT 260V330 10SM OVC029 M16/M21 A3014 RMK AO2 T11651211

More Conditions Fewer Conditions

10-Day Weather Forecast

Almanac

Astronomy

Jan. 31, 2015 Rise Set
Actual Time
Civil Twilight
Nautical Twilight
Astronomical Twilight
Moon
Length of Visible Light
Length of Day
Tomorrow will be .
, % of the Moon is Illuminated

Today's Extremes

State Highs State Lows

Community

WunderPhotos

Upload Photos

1,792,005 photos uploaded!

WunderBlogs® & News

Nearby

Air Quality

  Air Quality AQ Index Pollutant
Not available.

Snow Depth

Station Depth Elevation

Earthquake Activity

City Distance Mag. Time & Date
Minimum magnitude displayed is 2.5.

Coastal Water Temperatures

Place Temperature

Nearby Weather Stations